M I D A S
Marine Information and Data Acquisition System
Tripno 1234 of the Zeeleeuw from 2007-03-19 08:20:02 to 2007-03-19 11:45:25
Back to CruiseResearch ActivitiesStationsMapUnderway DataData graphs

EquipmentUnitsComment
TimeDGPSUTC
LatitudeDGPSDM.mWGS84
LongitudeDGPSDM.mWGS84
HeadingGyrodeg 
SOGDGPSknotsSpeed over ground
COGDGPSdegCourse over ground
DepthEcho soundermeters200 kHz
Missing or incorrect values are displayed as -999
Navigation data collected by the RV Zeeleeuw from 2007-03-19 08:19:51 to 2007-03-19 12:56:07
Time Latitude Longitude Heading SOG COG Depth
2007-03-19 08:20:56 51°13.616 2°56.03 122.5 4.2 298 -999
2007-03-19 08:21:56 51°13.648 2°55.956 124.6 3.6 303 4.6
2007-03-19 08:22:56 51°13.688 2°55.848 127 5.4 304 -999
2007-03-19 08:23:56 51°13.724 2°55.738 113.5 3.9 289 -999
2007-03-19 08:24:56 51°13.731 2°55.729 77.5 0.6 92 4.6
2007-03-19 08:25:56 51°13.727 2°55.717 61 1.3 51 -999
2007-03-19 08:26:56 51°13.726 2°55.722 30.7 1.6 209 -999
2007-03-19 08:27:56 51°13.731 2°55.719 1 2 355 -999
2007-03-19 08:28:56 51°13.777 2°55.675 332 4.9 328 -999
2007-03-19 08:29:56 51°13.879 2°55.596 340.4 8.3 336 11
2007-03-19 08:30:56 51°14.016 2°55.502 341.1 9.3 337 10.7
2007-03-19 08:31:56 51°14.154 2°55.4 337.2 8.9 330 10.8
2007-03-19 08:32:56 51°14.268 2°55.255 318.7 9 314 -999
2007-03-19 08:33:56 51°14.371 2°55.056 312 10.4 308 10.8
2007-03-19 08:34:56 51°14.458 2°54.817 302.4 10.8 282 11.1
2007-03-19 08:35:56 51°14.423 2°54.527 256.9 12 249 10.5
2007-03-19 08:36:56 51°14.325 2°54.234 243.8 12.7 241 9
2007-03-19 08:37:56 51°14.22 2°53.936 245.7 13.1 242 9.1
2007-03-19 08:38:55 51°14.113 2°53.641 244.7 13.2 239 9.2
2007-03-19 08:39:56 51°14.001 2°53.334 244.6 13.2 240 9.3
2007-03-19 08:40:56 51°13.891 2°53.035 245.1 13.2 240 9.5
2007-03-19 08:41:57 51°13.78 2°52.725 245.3 13.2 243 9.9
2007-03-19 08:42:56 51°13.671 2°52.428 245.2 13.3 241 10.1
2007-03-19 08:43:57 51°13.558 2°52.122 245.4 13.1 242 10.4
2007-03-19 08:44:56 51°13.45 2°51.827 244.8 13.1 240 10.3
2007-03-19 08:45:57 51°13.337 2°51.522 245.2 13 240 10.5
2007-03-19 08:46:56 51°13.228 2°51.227 244.6 13 241 10.4
2007-03-19 08:47:57 51°13.117 2°50.924 245.7 12.8 241 10.6
2007-03-19 08:48:57 51°13.009 2°50.627 245.9 13 237 10.6
2007-03-19 08:49:56 51°12.901 2°50.337 245.8 12.9 240 10.5
2007-03-19 08:50:57 51°12.793 2°50.036 246.7 12.8 239 10.8
2007-03-19 08:51:56 51°12.689 2°49.744 245.6 13 239 10.7
2007-03-19 08:52:57 51°12.583 2°49.442 243.8 13.1 243 10.9
2007-03-19 08:53:56 51°12.477 2°49.154 244.8 12.6 238 10.6
2007-03-19 08:54:56 51°12.376 2°48.857 247.6 12.9 241 11
2007-03-19 08:55:56 51°12.277 2°48.554 246.2 12.9 243 10.7
2007-03-19 08:56:56 51°12.186 2°48.246 252.4 12.7 249 11.1
2007-03-19 08:57:56 51°12.112 2°47.926 260.3 12.8 256 11.7
2007-03-19 08:58:56 51°12.055 2°47.605 261.8 12.6 257 12.1
2007-03-19 08:59:57 51°12.002 2°47.276 262.5 12.5 257 12.5
2007-03-19 09:00:56 51°11.949 2°46.96 262.3 12.6 254 12.8
2007-03-19 09:01:57 51°11.894 2°46.634 261.6 12.6 256 13
2007-03-19 09:02:56 51°11.841 2°46.313 261.4 12.6 256 13
2007-03-19 09:03:57 51°11.792 2°45.98 264.2 12.7 260 13
2007-03-19 09:04:56 51°11.749 2°45.662 265.2 12.4 256 13.3
2007-03-19 09:05:56 51°11.706 2°45.341 264.9 12.5 257 13
2007-03-19 09:06:57 51°11.671 2°45.013 268.5 12.1 263 12.8
2007-03-19 09:07:56 51°11.658 2°44.696 274.3 12.2 269 13.3
2007-03-19 09:08:57 51°11.645 2°44.375 273.2 11.9 267 12.8
2007-03-19 09:09:56 51°11.633 2°44.07 273.5 12 265 12.2
2007-03-19 09:10:57 51°11.622 2°43.746 274.3 12 267 11.9
2007-03-19 09:11:56 51°11.611 2°43.431 273.4 12 268 11.2
2007-03-19 09:12:56 51°11.597 2°43.115 273.5 12.1 264 11.1
2007-03-19 09:13:56 51°11.565 2°42.798 266.2 12 260 11
2007-03-19 09:14:56 51°11.515 2°42.486 258.3 11.8 249 11.2
2007-03-19 09:15:57 51°11.435 2°42.188 250.3 12.1 243 11.9
2007-03-19 09:16:57 51°11.331 2°41.901 246.1 12.3 238 11.3
2007-03-19 09:17:57 51°11.225 2°41.617 245.8 12.5 239 12.6
2007-03-19 09:18:56 51°11.119 2°41.342 242 12.3 236 12.5
2007-03-19 09:19:57 51°10.997 2°41.065 239.3 12.6 237 13.1
2007-03-19 09:20:56 51°10.878 2°40.795 240.9 12.8 234 13.4
2007-03-19 09:21:56 51°10.759 2°40.518 240.5 12.4 235 13.5
2007-03-19 09:22:57 51°10.64 2°40.241 240.6 12.4 238 14.3
2007-03-19 09:23:56 51°10.524 2°39.968 241.2 12.4 234 14.3
2007-03-19 09:24:57 51°10.406 2°39.686 241.3 12.9 232 14.8
2007-03-19 09:25:56 51°10.289 2°39.413 239.9 12.5 238 14.5
2007-03-19 09:26:57 51°10.171 2°39.13 242.3 12.7 236 15.3
2007-03-19 09:27:56 51°10.055 2°38.855 240.1 12.7 236 14.6
2007-03-19 09:28:57 51°9.932 2°38.581 239.9 12.7 235 15.1
2007-03-19 09:29:56 51°9.811 2°38.312 238.7 12.6 235 13.9
2007-03-19 09:30:56 51°9.688 2°38.043 236.6 12.7 233 14.1
2007-03-19 09:31:57 51°9.541 2°37.79 229.6 12.7 229 13.3
2007-03-19 09:32:56 51°9.404 2°37.55 232.5 11.2 224 12.3
2007-03-19 09:33:57 51°9.303 2°37.371 235.8 6.9 225 12.7
2007-03-19 09:34:56 51°9.251 2°37.258 257.2 3.9 246 12.3
2007-03-19 09:35:57 51°9.236 2°37.174 291.4 2.8 268 12.5
2007-03-19 09:36:57 51°9.227 2°37.129 300.6 1.6 228 12.4
2007-03-19 09:37:57 51°9.204 2°37.119 271.8 1.5 184 12
2007-03-19 09:38:57 51°9.184 2°37.123 233.6 1.1 170 11.4
2007-03-19 09:39:57 51°9.166 2°37.122 215.6 1.1 189 11.8
2007-03-19 09:40:57 51°9.146 2°37.12 213.3 1.3 181 11.5
2007-03-19 09:41:57 51°9.125 2°37.117 215.7 1.3 189 11.4
2007-03-19 09:42:57 51°9.104 2°37.112 224.9 1.2 188 10.8
2007-03-19 09:43:56 51°9.083 2°37.112 223.4 1.2 179 11
2007-03-19 09:44:57 51°9.061 2°37.109 222.6 1.2 185 10.9
2007-03-19 09:45:57 51°9.039 2°37.107 225.2 1.4 184 10.5
2007-03-19 09:46:57 51°9.017 2°37.105 225.4 1.4 185 10.3
2007-03-19 09:47:57 51°8.995 2°37.106 221.3 1.4 172 10.4
2007-03-19 09:48:56 51°8.976 2°37.106 218.4 1.2 176 10.4
2007-03-19 09:49:57 51°8.957 2°37.108 217.5 1.1 188 10
2007-03-19 09:50:56 51°8.939 2°37.109 221.4 1.3 182 10
2007-03-19 09:51:57 51°8.921 2°37.112 225.1 1.1 171 9.8
2007-03-19 09:52:57 51°8.897 2°37.105 231.7 2.4 215 9.6
2007-03-19 09:53:57 51°8.878 2°37.03 285 3.6 276 10
2007-03-19 09:54:57 51°8.926 2°36.982 5.1 3.8 5 9.9
2007-03-19 09:55:57 51°8.99 2°36.988 355.2 4.1 351 10.5
2007-03-19 09:56:57 51°9.075 2°36.968 353.9 6.1 350 11.3
2007-03-19 09:57:56 51°9.163 2°36.947 355.6 3.7 350 12.4
2007-03-19 09:58:57 51°9.19 2°36.945 357.1 1.1 357 13.1
2007-03-19 09:59:56 51°9.201 2°36.921 304.1 1.3 246 13.3
2007-03-19 10:00:57 51°9.179 2°36.914 259.8 1.3 178 4.2
2007-03-19 10:01:56 51°9.155 2°36.918 236.8 1.4 177 4.7
2007-03-19 10:02:57 51°9.131 2°36.925 232.9 1.4 164 11.9
2007-03-19 10:03:57 51°9.11 2°36.934 231.6 1.4 159 12.5
2007-03-19 10:04:57 51°9.09 2°36.942 232.8 1.3 163 11.7
2007-03-19 10:05:57 51°9.072 2°36.955 230.2 1.5 159 12
2007-03-19 10:06:57 51°9.053 2°36.968 229.5 1 165 11.5
2007-03-19 10:07:57 51°9.034 2°36.981 229.2 1.1 153 11.6
2007-03-19 10:08:56 51°9.014 2°36.994 230.5 1.2 158 11
2007-03-19 10:09:57 51°8.996 2°37.01 226.9 1.6 139 11.3
2007-03-19 10:10:57 51°8.979 2°37.026 225.7 1.7 149 11
2007-03-19 10:11:57 51°8.961 2°37.04 227.1 1.4 154 10.8
2007-03-19 10:12:57 51°8.944 2°37.054 228.5 1 157 10.9
2007-03-19 10:13:57 51°8.928 2°37.07 232.4 1.3 144 11
2007-03-19 10:14:57 51°8.913 2°37.085 234.4 1.3 146 10.6
2007-03-19 10:15:57 51°8.891 2°37.082 245.6 2.1 211 11
2007-03-19 10:16:57 51°8.883 2°37.017 296.5 2.9 290 10.1
2007-03-19 10:17:57 51°8.922 2°37.012 22.2 3.2 37 10.5
2007-03-19 10:18:57 51°8.95 2°37.099 66 4.5 75 11
2007-03-19 10:19:57 51°8.967 2°37.209 72.6 4.1 78 11.2
2007-03-19 10:20:57 51°8.974 2°37.307 75.9 3.4 89 11.2
2007-03-19 10:21:57 51°8.975 2°37.395 84.5 3.4 92 11.2
2007-03-19 10:22:57 51°8.975 2°37.477 77.2 2.9 83 11.4
2007-03-19 10:23:56 51°8.983 2°37.546 58.7 2.7 66 11.6
2007-03-19 10:24:56 51°8.996 2°37.616 54.2 3 77 11.6
2007-03-19 10:25:56 51°9.016 2°37.689 48.3 3.1 67 11.2
2007-03-19 10:26:56 51°9.04 2°37.768 53 3.6 63 11.6
2007-03-19 10:27:56 51°9.065 2°37.852 55 3.6 69 11.6
2007-03-19 10:28:56 51°9.09 2°37.941 57.5 3.8 66 11.5
2007-03-19 10:29:56 51°9.107 2°38.04 68.4 3.9 79 11.3
2007-03-19 10:30:56 51°9.122 2°38.133 66.7 3.7 82 10.8
2007-03-19 10:31:56 51°9.136 2°38.218 59.8 3.4 70 11.5
2007-03-19 10:32:56 51°9.15 2°38.302 61.2 3.4 77 11.7
2007-03-19 10:33:56 51°9.166 2°38.386 59.3 3.5 77 11.6
2007-03-19 10:34:56 51°9.181 2°38.467 55.3 3.2 72 11.4
2007-03-19 10:35:56 51°9.199 2°38.544 48.1 3.2 76 10.6
2007-03-19 10:36:56 51°9.219 2°38.618 44.1 3.3 64 11.9
2007-03-19 10:37:56 51°9.243 2°38.697 44.6 3.5 71 11.9
2007-03-19 10:38:56 51°9.27 2°38.781 46 3.6 64 11.9
2007-03-19 10:39:56 51°9.295 2°38.868 50.6 3.8 70 12.2
2007-03-19 10:40:56 51°9.317 2°38.957 52.2 3.5 73 12.3
2007-03-19 10:41:56 51°9.334 2°39.045 52.7 3.5 76 12.1
2007-03-19 10:42:57 51°9.348 2°39.136 53 3.7 77 11.5
2007-03-19 10:43:56 51°9.359 2°39.224 54.7 3.4 76 12.7
2007-03-19 10:44:56 51°9.372 2°39.311 55.1 3.5 79 11.6
2007-03-19 10:45:56 51°9.387 2°39.399 52.3 3.4 78 11.6
2007-03-19 10:46:56 51°9.401 2°39.486 54.7 3.7 84 11
2007-03-19 10:47:56 51°9.416 2°39.574 56.1 3.5 75 11.8
2007-03-19 10:48:56 51°9.425 2°39.665 70.6 3.8 95 11.2
2007-03-19 10:49:57 51°9.416 2°39.756 106.5 3.4 106 11.8
2007-03-19 10:50:56 51°9.392 2°39.84 126 3.6 117 11.4
2007-03-19 10:51:56 51°9.368 2°39.915 121 2.9 115 11.3
2007-03-19 10:52:56 51°9.354 2°39.98 106 2.6 115 11.3
2007-03-19 10:53:56 51°9.343 2°40.041 98.2 2.1 104 11.8
2007-03-19 10:54:56 51°9.336 2°40.096 90.8 2.1 103 11.1
2007-03-19 10:55:56 51°9.327 2°40.146 92.9 2.1 100 11.5
2007-03-19 10:56:56 51°9.32 2°40.214 87.3 3.3 87 11.4
2007-03-19 10:57:56 51°9.333 2°40.308 54.4 3.8 67 11.3
2007-03-19 10:58:56 51°9.368 2°40.422 51.7 5.7 62 11.2
2007-03-19 10:59:56 51°9.421 2°40.566 51.3 6.6 57 11.5
2007-03-19 11:00:56 51°9.488 2°40.739 53.1 9.5 57 11.5
2007-03-19 11:01:56 51°9.591 2°40.969 52.9 11.2 50 11.2
2007-03-19 11:02:56 51°9.704 2°41.207 51.6 11.3 53 11.7
2007-03-19 11:03:56 51°9.816 2°41.449 52.6 11.4 53 11.9
2007-03-19 11:04:56 51°9.932 2°41.699 53.2 12.2 51 12.2
2007-03-19 11:05:56 51°10.062 2°41.978 56 14.2 56 11.9
2007-03-19 11:06:56 51°10.193 2°42.289 57.6 14.2 51 11.9
2007-03-19 11:07:57 51°10.323 2°42.612 57.2 14.1 60 11.8
2007-03-19 11:08:56 51°10.454 2°42.923 57.4 14.2 55 12.7
2007-03-19 11:09:56 51°10.589 2°43.241 55.4 14.4 57 12.2
2007-03-19 11:10:56 51°10.725 2°43.559 57.7 14.6 56 13.1
2007-03-19 11:11:56 51°10.859 2°43.88 61.5 14.6 59 13.2
2007-03-19 11:12:56 51°10.98 2°44.217 60.7 14.4 62 13.9
2007-03-19 11:13:56 51°11.1 2°44.55 63.3 14.9 62 14.1
2007-03-19 11:14:57 51°11.212 2°44.898 64.3 14.4 63 14.2
2007-03-19 11:15:56 51°11.316 2°45.243 66 14.4 59 14.8
2007-03-19 11:16:57 51°11.425 2°45.593 64.8 14.1 61 14.9
2007-03-19 11:17:56 51°11.531 2°45.932 65.8 14.7 63 15.5
2007-03-19 11:18:56 51°11.643 2°46.28 68 14.8 55 15.4
2007-03-19 11:19:56 51°11.754 2°46.622 64.9 14.9 66 15.7
2007-03-19 11:20:57 51°11.866 2°46.975 67.5 14.6 62 15.4
2007-03-19 11:21:56 51°11.973 2°47.317 65.3 14.8 63 15
2007-03-19 11:22:56 51°12.084 2°47.662 67.5 14.9 66 15.6
2007-03-19 11:23:57 51°12.194 2°48.013 59.5 14.7 69 15.3
2007-03-19 11:24:56 51°12.309 2°48.346 64.7 14.5 61 14.9
2007-03-19 11:25:57 51°12.426 2°48.693 61 14.5 66 15.2
2007-03-19 11:26:56 51°12.546 2°49.025 63.7 14.6 55 15.5
2007-03-19 11:27:57 51°12.663 2°49.373 63.4 14.9 58 15.2
2007-03-19 11:28:56 51°12.776 2°49.708 62.7 14.6 64 15.2
2007-03-19 11:29:56 51°12.9 2°50.043 61.6 14.8 59 15.4
2007-03-19 11:30:57 51°13.028 2°50.38 59.9 14.7 58 14.7
2007-03-19 11:31:56 51°13.155 2°50.704 59.4 13.9 58 14.7
2007-03-19 11:32:57 51°13.252 2°50.977 59.8 11.9 65 14.4
2007-03-19 11:33:56 51°13.362 2°51.277 60.9 14.3 62 14.8
2007-03-19 11:34:56 51°13.487 2°51.607 60.2 14.5 62 14.6
2007-03-19 11:35:56 51°13.614 2°51.936 60.5 14.7 57 14.1
2007-03-19 11:36:57 51°13.745 2°52.271 62.5 14.8 61 14
2007-03-19 11:37:57 51°13.861 2°52.611 66.3 14.8 58 14
2007-03-19 11:38:56 51°13.975 2°52.95 66 14.7 60 12.9
2007-03-19 11:39:57 51°14.093 2°53.299 64 14.8 61 13.4
2007-03-19 11:40:56 51°14.211 2°53.635 68.1 14.6 58 13.4
2007-03-19 11:41:57 51°14.316 2°53.981 71.7 13.5 71 13.3
2007-03-19 11:42:56 51°14.396 2°54.31 80.1 13.6 75 12.7
2007-03-19 11:43:56 51°14.435 2°54.665 87 13.1 86 14.1
2007-03-19 11:44:56 51°14.388 2°55.004 122.6 13.8 120 14.2
2007-03-19 11:45:57 51°14.264 2°55.269 132.5 12.2 134 14.9
2007-03-19 11:46:57 51°14.107 2°55.429 159 10.2 155 14.7
2007-03-19 11:47:56 51°13.977 2°55.523 158 7.3 155 14.8
2007-03-19 11:48:57 51°13.876 2°55.599 157.2 6.1 154 14.6
2007-03-19 11:49:56 51°13.792 2°55.667 154.1 5.6 151 14.8
2007-03-19 11:50:57 51°13.721 2°55.751 137.8 4.9 136 -999
2007-03-19 11:51:56 51°13.669 2°55.843 131.6 4.6 127 14.5
2007-03-19 11:52:57 51°13.631 2°55.946 118.5 4.1 115 -999
2007-03-19 11:53:57 51°13.61 2°56.032 113.7 3.2 109 -999
2007-03-19 11:54:57 51°13.599 2°56.087 110.3 0.7 108 -999
2007-03-19 11:55:57 51°13.599 2°56.093 122.7 0.1 115 -999
2007-03-19 11:56:57 51°13.597 2°56.094 129.4 0.1 107 -999
2007-03-19 11:57:57 51°13.597 2°56.095 127.4 -999 169 -999
2007-03-19 11:58:57 51°13.598 2°56.095 128.2 0.1 95 -999
2007-03-19 11:59:57 51°13.598 2°56.096 127.6 -999 49 -999
2007-03-19 12:00:57 51°13.598 2°56.096 126.9 -999 261 -999
2007-03-19 12:01:57 51°13.598 2°56.095 126.5 -999 350 -999
2007-03-19 12:02:57 51°13.598 2°56.095 126.1 -999 351 -999
2007-03-19 12:03:57 51°13.598 2°56.095 125.7 -999 157 -999
2007-03-19 12:04:57 51°13.598 2°56.095 126.4 0.1 312 -999
2007-03-19 12:05:57 51°13.598 2°56.094 126 0.1 239 -999
2007-03-19 12:06:57 51°13.598 2°56.095 126.5 0.1 193 -999
2007-03-19 12:07:57 51°13.598 2°56.094 125.7 -999 173 -999
2007-03-19 12:08:57 51°13.598 2°56.094 126 -999 195 -999
2007-03-19 12:09:57 51°13.598 2°56.094 125.6 -999 200 -999
2007-03-19 12:10:57 51°13.597 2°56.094 126.3 -999 337 -999
2007-03-19 12:11:57 51°13.597 2°56.095 126.3 -999 343 -999
2007-03-19 12:12:57 51°13.597 2°56.095 126.7 -999 263 -999
2007-03-19 12:13:57 51°13.597 2°56.095 126 -999 36 -999
2007-03-19 12:14:57 51°13.598 2°56.095 126 -999 18 -999
2007-03-19 12:15:57 51°13.597 2°56.095 126.2 -999 28 -999
2007-03-19 12:16:57 51°13.598 2°56.094 125.4 -999 26 -999
2007-03-19 12:17:57 51°13.598 2°56.094 125.6 -999 322 -999
2007-03-19 12:18:57 51°13.597 2°56.094 125.9 -999 241 -999
2007-03-19 12:19:57 51°13.597 2°56.095 126.2 -999 252 -999
2007-03-19 12:20:57 51°13.597 2°56.095 126.2 -999 159 -999
2007-03-19 12:21:57 51°13.597 2°56.096 126.2 0.1 144 -999
2007-03-19 12:22:57 51°13.597 2°56.096 125.4 0.1 125 -999
2007-03-19 12:23:57 51°13.598 2°56.096 125.2 -999 82 -999
2007-03-19 12:24:57 51°13.598 2°56.095 125.5 0.1 64 -999
2007-03-19 12:25:57 51°13.598 2°56.095 125.5 -999 3 -999
2007-03-19 12:26:57 51°13.597 2°56.095 126.1 -999 38 -999
2007-03-19 12:27:57 51°13.597 2°56.094 125.7 -999 129 -999
2007-03-19 12:28:57 51°13.597 2°56.095 125.9 0.1 92 -999
2007-03-19 12:29:57 51°13.598 2°56.094 125.4 -999 101 -999
2007-03-19 12:30:57 51°13.598 2°56.095 125.5 -999 8 -999
2007-03-19 12:31:57 51°13.598 2°56.095 125.7 0.1 272 -999
2007-03-19 12:32:57 51°13.597 2°56.096 126.2 -999 196 -999
2007-03-19 12:33:57 51°13.597 2°56.096 126.1 -999 290 -999
2007-03-19 12:34:57 51°13.597 2°56.095 126 -999 25 -999
2007-03-19 12:35:57 51°13.597 2°56.095 126.4 -999 233 -999
2007-03-19 12:36:57 51°13.598 2°56.094 124.9 -999 311 -999
2007-03-19 12:37:57 51°13.598 2°56.095 125.7 0.1 90 -999
2007-03-19 12:38:57 51°13.598 2°56.095 125.5 -999 121 -999
2007-03-19 12:39:57 51°13.598 2°56.095 125.7 -999 74 -999
2007-03-19 12:40:57 51°13.598 2°56.096 126.2 0.1 298 -999
2007-03-19 12:41:57 51°13.599 2°56.095 125 -999 317 -999
2007-03-19 12:42:57 51°13.598 2°56.095 125.8 -999 112 -999
2007-03-19 12:43:57 51°13.598 2°56.095 126 -999 234 -999
2007-03-19 12:44:57 51°13.598 2°56.095 125.7 -999 148 -999
2007-03-19 12:45:57 51°13.598 2°56.095 126.1 0.1 91 -999
2007-03-19 12:46:57 51°13.598 2°56.094 125.4 -999 53 -999
2007-03-19 12:47:57 51°13.599 2°56.094 125.4 0.1 197 -999
2007-03-19 12:48:57 51°13.598 2°56.095 126.6 0.1 65 -999
2007-03-19 12:49:57 51°13.599 2°56.095 124.6 0.1 46 -999
2007-03-19 12:50:57 51°13.599 2°56.095 125.1 -999 169 -999
2007-03-19 12:51:57 51°13.598 2°56.096 126.4 -999 6 -999
2007-03-19 12:52:57 51°13.599 2°56.095 125.3 0.1 340 -999
2007-03-19 12:53:57 51°13.599 2°56.095 125 -999 94 -999
2007-03-19 12:54:57 51°13.599 2°56.095 126 -999 92 -999
2007-03-19 12:55:57 51°13.599 2°56.094 125.2 -999 144 -999